Terminal Aerodrome Forecast
Issued by NWS

Home | Current Version | Previous Version | Text Only | Print | Product List | Glossary On
Versions: 1 2 3 4 5 6 7 8 9 10 11 12 13
818
FTUS42 TJSJ 161839 CCA
TAFNCM
TAF COR
TNCM 161839Z 1618/1718 09012KT P6SM VCSH SCT018 SCT035
     FM170000 08007KT P6SM FEW018 FEW040
     FM171500 10014KT P6SM SCT024=

USA.gov is the U.S. government's official web portal to all federal, state and local government web resources and services.